Time;durP1;ratioP1;P1;durP2;ratioP2;P2;SDS_P1;SDS_P2;PMS_P1;PMS_P2;Temp;Humidity;BMP_temperature;BMP_pressure;BME280_temperature;BME280_humidity;BME280_pressure;Samples;Min_cycle;Max_cycle;Signal;HPM_P1;HPM_P2
2022/07/13 00:01:10;;;;;;;1960.20;999.90;;;21.20;99.90;;;;;;4874040;29;20059;-79
2022/07/13 00:03:36;;;;;;;1999.90;999.90;;;21.30;99.90;;;;;;4893238;29;20426;-82
2022/07/13 00:06:02;;;;;;;1999.90;999.90;;;21.20;99.90;;;;;;4892367;29;20131;-79
2022/07/13 00:08:28;;;;;;;1938.40;999.90;;;21.20;99.90;;;;;;4891492;29;20550;-79
2022/07/13 00:10:53;;;;;;;1966.57;999.90;;;21.20;99.90;;;;;;4891943;29;20048;-79
2022/07/13 00:13:19;;;;;;;1999.90;999.90;;;21.20;99.90;;;;;;4890724;29;20079;-81
2022/07/13 00:15:45;;;;;;;1999.90;999.90;;;21.20;99.90;;;;;;4891909;29;20151;-79
2022/07/13 00:18:10;;;;;;;1999.90;999.90;;;21.10;99.90;;;;;;4890216;29;20554;-79
2022/07/13 00:20:36;;;;;;;1999.90;999.90;;;21.10;99.90;;;;;;4893845;29;20152;-79
2022/07/13 00:23:03;;;;;;;1999.90;999.90;;;21.20;99.90;;;;;;4894023;29;20076;-78
2022/07/13 00:25:29;;;;;;;1999.90;999.90;;;21.20;99.90;;;;;;4893570;29;20056;-79
2022/07/13 00:27:54;;;;;;;1845.75;999.90;;;21.20;99.90;;;;;;4891301;29;20052;-79
2022/07/13 00:30:20;;;;;;;1999.90;999.90;;;21.20;99.90;;;;;;4893237;29;20123;-80
2022/07/13 00:32:46;;;;;;;1999.90;999.90;;;21.20;99.90;;;;;;4891120;29;20054;-85
2022/07/13 00:35:11;;;;;;;1999.90;996.80;;;21.20;99.90;;;;;;4890770;29;20442;-80
2022/07/13 00:37:37;;;;;;;1999.90;999.90;;;21.10;99.90;;;;;;4894252;29;20505;-80
2022/07/13 00:40:03;;;;;;;1999.90;999.90;;;21.10;99.90;;;;;;4892162;29;20100;-80
2022/07/13 00:42:29;;;;;;;1999.90;999.90;;;21.20;99.90;;;;;;4888493;29;20091;-80
2022/07/13 00:44:54;;;;;;;1999.90;999.90;;;21.20;99.90;;;;;;4889980;29;20187;-79
2022/07/13 00:47:20;;;;;;;1999.90;999.90;;;21.20;99.90;;;;;;4890698;29;20116;-78
2022/07/13 00:49:46;;;;;;;1999.90;999.90;;;21.10;99.90;;;;;;4891809;29;20533;-80
2022/07/13 00:52:12;;;;;;;1869.35;999.90;;;21.10;99.90;;;;;;4892228;29;20521;-79
2022/07/13 00:54:40;;;;;;;1999.90;999.90;;;21.10;99.90;;;;;;4875584;29;20095;-82
2022/07/13 00:57:11;;;;;;;1990.35;999.90;;;21.10;99.90;;;;;;4890134;29;20045;-80
2022/07/13 00:59:36;;;;;;;1999.90;999.90;;;21.10;99.90;;;;;;4892353;29;20061;-80
2022/07/13 01:02:02;;;;;;;1999.90;999.90;;;21.10;99.90;;;;;;4886923;29;20055;-80
2022/07/13 01:04:28;;;;;;;1999.90;999.90;;;21.10;99.90;;;;;;4891789;29;20057;-80
2022/07/13 01:06:54;;;;;;;1983.07;999.90;;;21.10;99.90;;;;;;4890824;29;20040;-80
2022/07/13 01:09:23;;;;;;;1999.90;999.90;;;21.10;99.90;;;;;;4893003;29;20083;-80
2022/07/13 01:11:51;;;;;;;1999.90;999.90;;;21.10;99.90;;;;;;4890997;29;20123;-83
2022/07/13 01:14:17;;;;;;;1999.90;999.90;;;21.10;99.90;;;;;;4891554;29;20450;-79
2022/07/13 01:16:43;;;;;;;1999.90;999.90;;;21.10;99.90;;;;;;4890843;29;20453;-85
2022/07/13 01:19:11;;;;;;;1999.90;999.90;;;21.00;99.90;;;;;;4890194;29;20072;-79
2022/07/13 01:21:41;;;;;;;1999.90;999.90;;;21.10;99.90;;;;;;4893912;29;20057;-79
2022/07/13 01:24:07;;;;;;;1999.90;999.90;;;21.10;99.90;;;;;;4890567;29;20358;-80
2022/07/13 01:26:33;;;;;;;1904.25;999.90;;;21.10;99.90;;;;;;4891045;29;20047;-79
2022/07/13 01:28:59;;;;;;;1999.90;999.90;;;21.10;99.90;;;;;;4891610;29;20048;-79
2022/07/13 01:31:39;;;;;;;1598.05;998.25;;;21.10;99.90;;;;;;4890583;29;20048;-79
2022/07/13 01:34:05;;;;;;;1999.90;999.90;;;21.10;99.90;;;;;;4892325;29;20052;-79
2022/07/13 01:36:32;;;;;;;1901.13;999.90;;;21.00;99.90;;;;;;4893397;29;20055;-80
2022/07/13 01:38:58;;;;;;;1999.90;999.90;;;21.00;99.90;;;;;;4892882;29;20061;-79
2022/07/13 01:41:25;;;;;;;1999.90;999.90;;;21.00;99.90;;;;;;4891359;29;20095;-79
2022/07/13 01:43:51;;;;;;;1999.90;999.90;;;21.10;99.90;;;;;;4892404;29;20056;-79
2022/07/13 01:46:17;;;;;;;1999.90;999.90;;;21.00;99.90;;;;;;4892772;29;20398;-81
2022/07/13 01:48:43;;;;;;;1996.80;999.90;;;21.00;99.90;;;;;;4884728;29;20068;-79
2022/07/13 01:51:08;;;;;;;1999.90;999.90;;;21.00;99.90;;;;;;4892116;29;20190;-79
2022/07/13 01:53:34;;;;;;;1999.90;999.90;;;21.00;99.90;;;;;;4891429;29;20052;-79
2022/07/13 01:55:59;;;;;;;1999.90;999.90;;;21.00;99.90;;;;;;4890346;29;20049;-80
2022/07/13 01:58:26;;;;;;;1999.90;999.90;;;21.00;99.90;;;;;;4892042;29;20063;-79
2022/07/13 02:00:52;;;;;;;1999.90;999.90;;;21.00;99.90;;;;;;4888177;29;20128;-83
2022/07/13 02:03:19;;;;;;;1999.90;999.90;;;21.00;99.90;;;;;;4891954;29;20708;-80
2022/07/13 02:05:45;;;;;;;1291.07;922.43;;;21.00;99.90;;;;;;4897772;29;20438;-79
2022/07/13 02:08:11;;;;;;;1999.90;999.90;;;21.00;99.90;;;;;;4894538;29;20052;-79
2022/07/13 02:10:37;;;;;;;1999.90;999.90;;;21.00;99.90;;;;;;4896471;29;20049;-80
2022/07/13 02:13:08;;;;;;;1990.90;999.90;;;21.00;99.90;;;;;;4891403;29;20076;-78
2022/07/13 02:15:34;;;;;;;1612.70;948.78;;;21.00;99.90;;;;;;4896970;29;20064;-79
2022/07/13 02:18:00;;;;;;;1999.90;999.90;;;21.00;99.90;;;;;;4895442;29;20051;-80
2022/07/13 02:20:26;;;;;;;919.63;835.75;;;21.00;99.90;;;;;;4895982;29;20045;-81
2022/07/13 02:22:52;;;;;;;1999.90;999.90;;;20.90;99.90;;;;;;4894120;29;20084;-80
2022/07/13 02:25:18;;;;;;;1999.90;999.90;;;21.00;99.90;;;;;;4896650;29;20040;-80
2022/07/13 02:27:44;;;;;;;1999.90;999.90;;;21.00;99.90;;;;;;4894518;29;20410;-80
2022/07/13 02:30:11;;;;;;;1999.90;999.90;;;21.00;99.90;;;;;;4893411;29;20053;-79
2022/07/13 02:32:38;;;;;;;1670.00;986.00;;;21.00;99.90;;;;;;4893174;29;20057;-80
2022/07/13 02:35:05;;;;;;;1657.43;995.70;;;20.90;99.90;;;;;;4895124;29;20466;-80
2022/07/13 02:37:30;;;;;;;1999.90;999.90;;;20.90;99.90;;;;;;4894363;29;20071;-82
2022/07/13 02:39:56;;;;;;;1379.88;952.25;;;20.90;99.90;;;;;;4895411;29;20507;-80
2022/07/13 02:42:23;;;;;;;1999.90;999.90;;;20.90;99.90;;;;;;4891174;29;20060;-81
2022/07/13 02:44:53;;;;;;;1693.15;999.90;;;20.90;99.90;;;;;;4891156;29;20470;-80
2022/07/13 02:47:19;;;;;;;1046.45;900.67;;;20.90;99.90;;;;;;4895153;29;20083;-79
2022/07/13 02:49:45;;;;;;;1515.85;996.90;;;20.80;99.90;;;;;;4891907;29;20514;-79
2022/07/13 02:52:11;;;;;;;1999.90;999.90;;;20.90;99.90;;;;;;4892865;29;20044;-79
2022/07/13 02:54:37;;;;;;;1999.90;999.90;;;20.90;99.90;;;;;;4894986;29;20076;-79
2022/07/13 02:57:05;;;;;;;1999.90;999.90;;;20.90;99.90;;;;;;4876247;29;20104;-85
2022/07/13 02:59:37;;;;;;;1816.82;999.90;;;20.90;99.90;;;;;;4895362;29;20483;-79
2022/07/13 03:02:04;;;;;;;1999.90;999.90;;;20.80;99.90;;;;;;4890610;29;20044;-82
2022/07/13 03:04:30;;;;;;;1999.90;999.90;;;20.80;99.90;;;;;;4893300;29;20045;-79
2022/07/13 03:06:56;;;;;;;1999.90;999.90;;;20.80;99.90;;;;;;4895854;29;20108;-79
2022/07/13 03:09:22;;;;;;;1999.90;999.90;;;20.80;99.90;;;;;;4896331;29;20048;-79
2022/07/13 03:11:47;;;;;;;1999.90;999.90;;;20.80;99.90;;;;;;4890840;29;20049;-79
2022/07/13 03:14:13;;;;;;;1999.90;999.90;;;20.80;99.90;;;;;;4894547;29;20055;-80
2022/07/13 03:16:39;;;;;;;1999.90;999.90;;;20.80;99.90;;;;;;4894735;29;20044;-79
2022/07/13 03:19:04;;;;;;;1999.90;999.90;;;20.80;99.90;;;;;;4892892;29;20041;-79
2022/07/13 03:21:30;;;;;;;1999.90;999.90;;;20.80;99.90;;;;;;4891734;29;20089;-78
2022/07/13 03:23:56;;;;;;;1999.90;999.90;;;20.80;99.90;;;;;;4894502;29;20127;-79
2022/07/13 03:26:23;;;;;;;1999.90;999.90;;;20.80;99.90;;;;;;4895364;29;20112;-79
2022/07/13 03:28:48;;;;;;;1999.90;999.90;;;20.80;99.90;;;;;;4894947;29;20048;-79
2022/07/13 03:31:14;;;;;;;1999.90;999.90;;;20.80;99.90;;;;;;4892813;29;20286;-78
2022/07/13 03:33:40;;;;;;;1999.90;999.90;;;20.80;99.90;;;;;;4894458;29;20082;-79
2022/07/13 03:36:07;;;;;;;1972.00;999.90;;;20.70;99.90;;;;;;4893603;29;20100;-78
2022/07/13 03:38:33;;;;;;;1999.90;999.90;;;20.80;99.90;;;;;;4895760;29;20116;-79
2022/07/13 03:40:59;;;;;;;1999.90;968.90;;;20.70;99.90;;;;;;4892376;29;20422;-79
2022/07/13 03:43:25;;;;;;;1999.90;999.90;;;20.70;99.90;;;;;;4892920;29;20048;-80
2022/07/13 03:45:51;;;;;;;1999.90;999.90;;;20.70;99.90;;;;;;4894481;29;20446;-79
2022/07/13 03:48:17;;;;;;;1999.90;999.90;;;20.70;99.90;;;;;;4892788;29;20395;-82
2022/07/13 03:50:43;;;;;;;1999.90;999.90;;;20.70;99.90;;;;;;4893288;29;20200;-79
2022/07/13 03:53:09;;;;;;;1999.90;999.90;;;20.70;99.90;;;;;;4894429;29;20342;-85
2022/07/13 03:55:36;;;;;;;1999.90;999.90;;;20.70;99.90;;;;;;4892678;29;20104;-83
2022/07/13 03:58:02;;;;;;;1999.90;999.90;;;20.70;99.90;;;;;;4889180;29;20124;-79
2022/07/13 04:00:27;;;;;;;1999.90;999.90;;;20.70;99.90;;;;;;4893191;29;20184;-80
2022/07/13 04:02:53;;;;;;;1999.90;999.90;;;20.70;99.90;;;;;;4891429;29;20052;-80
2022/07/13 04:05:19;;;;;;;1276.45;908.28;;;20.70;99.90;;;;;;4894259;29;20100;-80
2022/07/13 04:07:44;;;;;;;1999.90;999.90;;;20.70;99.90;;;;;;4892554;29;20060;-80
2022/07/13 04:10:10;;;;;;;1963.85;999.90;;;20.70;99.90;;;;;;4882976;29;20074;-82
2022/07/13 04:12:36;;;;;;;1999.90;999.90;;;20.80;99.90;;;;;;4893066;29;20049;-80
2022/07/13 04:15:01;;;;;;;1999.90;999.90;;;20.80;99.90;;;;;;4893641;29;20048;-80
2022/07/13 04:17:27;;;;;;;1999.90;999.90;;;20.80;99.90;;;;;;4892898;29;20048;-81
2022/07/13 04:19:53;;;;;;;1999.90;999.90;;;20.70;99.90;;;;;;4892008;29;20083;-80
2022/07/13 04:22:18;;;;;;;1999.90;999.90;;;20.80;99.90;;;;;;4893822;29;20123;-80
2022/07/13 04:24:45;;;;;;;1999.90;999.90;;;20.80;99.90;;;;;;4895885;29;20136;-80
2022/07/13 04:27:10;;;;;;;1999.90;999.90;;;20.80;99.90;;;;;;4892653;29;20064;-84
2022/07/13 04:29:36;;;;;;;1999.90;999.90;;;20.80;99.90;;;;;;4893608;29;20100;-80
2022/07/13 04:32:02;;;;;;;1999.90;999.90;;;20.80;99.90;;;;;;4895112;29;20129;-81
2022/07/13 04:34:27;;;;;;;1999.90;999.90;;;20.80;99.90;;;;;;4893424;29;20083;-81
2022/07/13 04:36:55;;;;;;;1999.90;999.90;;;20.80;99.90;;;;;;4892844;29;20056;-82
2022/07/13 04:39:21;;;;;;;1999.90;999.90;;;20.80;99.90;;;;;;4894866;29;20063;-81
2022/07/13 04:41:47;;;;;;;1999.90;958.00;;;20.80;99.90;;;;;;4893662;29;20459;-81
2022/07/13 04:44:12;;;;;;;1999.90;999.90;;;20.90;99.90;;;;;;4906664;29;20044;-81
2022/07/13 04:46:38;;;;;;;1999.90;999.90;;;20.90;99.90;;;;;;4888132;29;20060;-81
2022/07/13 04:49:04;;;;;;;1999.90;999.90;;;20.90;99.90;;;;;;4890099;29;20056;-81
2022/07/13 04:51:29;;;;;;;1999.90;999.90;;;21.00;99.90;;;;;;4893686;29;20137;-83
2022/07/13 04:53:57;;;;;;;1999.90;999.90;;;21.00;99.90;;;;;;4892983;29;20515;-82
2022/07/13 04:56:22;;;;;;;1999.90;999.90;;;21.00;99.90;;;;;;4890693;29;20457;-79
2022/07/13 04:58:48;;;;;;;1999.90;999.90;;;21.00;99.90;;;;;;4890766;29;20147;-78
2022/07/13 05:01:14;;;;;;;1999.90;999.90;;;21.00;99.90;;;;;;4892444;29;20423;-80
2022/07/13 05:03:40;;;;;;;936.83;836.15;;;21.10;99.90;;;;;;4892586;29;20053;-80
2022/07/13 05:06:05;;;;;;;1616.65;999.90;;;21.10;99.90;;;;;;4894580;29;20053;-78
2022/07/13 05:08:31;;;;;;;1289.90;915.53;;;21.10;99.90;;;;;;4892950;29;20088;-79
2022/07/13 05:10:57;;;;;;;1512.88;990.55;;;21.20;99.90;;;;;;4894149;29;20056;-79
2022/07/13 05:13:22;;;;;;;1991.95;999.90;;;21.10;99.90;;;;;;4884711;29;20410;-79
2022/07/13 05:15:48;;;;;;;1999.90;999.90;;;21.10;99.90;;;;;;4891666;29;20045;-78
2022/07/13 05:18:14;;;;;;;1999.90;999.90;;;21.20;99.90;;;;;;4891757;29;20072;-79
2022/07/13 05:20:39;;;;;;;1320.75;930.08;;;21.20;99.90;;;;;;4890803;29;20075;-83
2022/07/13 05:23:05;;;;;;;1999.90;999.90;;;21.20;99.90;;;;;;4891834;29;20087;-79
2022/07/13 05:25:31;;;;;;;1546.97;993.13;;;21.20;99.90;;;;;;4890836;29;20058;-78
2022/07/13 05:27:56;;;;;;;1683.03;991.28;;;21.30;99.90;;;;;;4893205;29;20053;-78
2022/07/13 05:30:22;;;;;;;1963.88;999.90;;;21.30;99.90;;;;;;4889182;29;20052;-83
2022/07/13 05:32:48;;;;;;;1528.55;988.40;;;21.40;99.90;;;;;;4892206;29;20139;-78
2022/07/13 05:35:13;;;;;;;1956.15;999.90;;;21.40;99.90;;;;;;4891233;29;20072;-77
2022/07/13 05:37:39;;;;;;;1999.90;999.90;;;21.50;99.90;;;;;;4892473;29;20373;-84
2022/07/13 05:40:05;;;;;;;1999.90;999.90;;;21.60;99.90;;;;;;4895451;29;20048;-79
2022/07/13 05:42:31;;;;;;;1774.38;993.10;;;21.60;99.90;;;;;;4889543;29;20098;-79
2022/07/13 05:44:57;;;;;;;1078.07;928.90;;;21.70;99.90;;;;;;4896684;29;20084;-78
2022/07/13 05:47:23;;;;;;;1674.82;987.45;;;21.80;99.90;;;;;;4893120;29;20140;-84
2022/07/13 05:49:48;;;;;;;1039.10;934.33;;;21.90;99.90;;;;;;4892116;29;20060;-78
2022/07/13 05:52:14;;;;;;;1298.00;990.97;;;22.00;99.90;;;;;;4895756;29;20093;-78
2022/07/13 05:54:40;;;;;;;1999.90;850.45;;;22.10;99.90;;;;;;4895936;29;20048;-78
2022/07/13 05:57:05;;;;;;;1946.57;999.90;;;22.10;99.90;;;;;;4895907;29;20040;-78
2022/07/13 05:59:33;;;;;;;1999.90;999.90;;;22.30;99.90;;;;;;4896929;29;20055;-83
2022/07/13 06:01:59;;;;;;;1623.75;999.90;;;22.40;99.90;;;;;;4898282;29;20088;-78
2022/07/13 06:04:25;;;;;;;1999.90;999.90;;;22.50;99.90;;;;;;4896057;29;20495;-78
2022/07/13 06:06:51;;;;;;;1065.30;956.22;;;22.60;99.90;;;;;;4897820;29;20391;-78
2022/07/13 06:09:17;;;;;;;1184.35;998.35;;;22.60;99.90;;;;;;4887760;29;20084;-81
2022/07/13 06:11:43;;;;;;;1788.78;999.90;;;22.70;99.90;;;;;;4896016;29;20135;-82
2022/07/13 06:14:09;;;;;;;1239.75;999.90;;;22.80;99.90;;;;;;4897817;29;20127;-82
2022/07/13 06:16:35;;;;;;;1843.38;999.90;;;22.90;99.90;;;;;;4897101;29;20048;-82
2022/07/13 06:19:01;;;;;;;1205.22;996.70;;;23.10;99.90;;;;;;4896950;29;20055;-82
2022/07/13 06:21:27;;;;;;;1217.38;999.90;;;23.20;99.90;;;;;;4885472;29;20083;-83
2022/07/13 06:23:53;;;;;;;1131.32;921.35;;;23.30;99.90;;;;;;4894929;29;20603;-82
2022/07/13 06:26:19;;;;;;;1243.45;999.90;;;23.40;99.90;;;;;;4898042;29;20087;-83
2022/07/13 06:28:44;;;;;;;1054.93;896.13;;;23.50;99.90;;;;;;4898006;29;20056;-82
2022/07/13 06:31:10;;;;;;;984.25;894.60;;;23.70;99.90;;;;;;4896678;29;20093;-81
2022/07/13 06:33:36;;;;;;;976.20;886.17;;;23.60;99.90;;;;;;4894870;29;20375;-81
2022/07/13 06:36:01;;;;;;;1008.60;917.22;;;23.70;99.90;;;;;;4880794;29;20053;-82
2022/07/13 06:38:27;;;;;;;1208.80;880.67;;;23.90;99.90;;;;;;4898128;29;20116;-87
2022/07/13 06:40:53;;;;;;;884.55;806.70;;;24.10;99.90;;;;;;4897190;29;20443;-79
2022/07/13 06:43:19;;;;;;;753.22;689.60;;;24.20;99.90;;;;;;4896708;29;20052;-78
2022/07/13 06:45:45;;;;;;;950.80;857.70;;;24.30;99.90;;;;;;4894212;29;20067;-78
2022/07/13 06:48:11;;;;;;;891.78;811.97;;;24.50;99.90;;;;;;4894520;29;20068;-79
2022/07/13 06:50:37;;;;;;;1047.85;939.33;;;24.70;99.90;;;;;;4896324;29;20061;-79
2022/07/13 06:53:03;;;;;;;940.55;851.85;;;24.80;99.90;;;;;;4897638;29;20044;-78
2022/07/13 06:55:29;;;;;;;1999.90;999.90;;;24.80;99.90;;;;;;4897010;29;20044;-82
2022/07/13 06:57:55;;;;;;;950.35;856.13;;;24.90;99.90;;;;;;4896640;29;20405;-78
2022/07/13 07:00:21;;;;;;;995.88;902.20;;;24.60;99.90;;;;;;4894199;29;20084;-79
2022/07/13 07:02:47;;;;;;;869.08;795.00;;;24.60;99.90;;;;;;4895263;29;20056;-79
2022/07/13 07:05:13;;;;;;;1048.45;933.80;;;24.70;99.90;;;;;;4895424;29;20056;-80
2022/07/13 07:07:40;;;;;;;1036.60;935.92;;;24.80;99.90;;;;;;4890945;29;20044;-79
2022/07/13 07:10:07;;;;;;;988.73;887.10;;;24.80;99.90;;;;;;4888252;29;20523;-79
2022/07/13 07:12:32;;;;;;;1239.83;999.90;;;24.80;99.90;;;;;;4895431;29;20044;-81
2022/07/13 07:14:58;;;;;;;1216.55;968.85;;;25.10;99.90;;;;;;4893552;29;20312;-80
2022/07/13 07:17:24;;;;;;;1063.47;947.60;;;25.60;99.90;;;;;;4894643;29;20595;-80
2022/07/13 07:19:49;;;;;;;1375.20;999.90;;;26.20;99.90;;;;;;4892519;29;20488;-80
2022/07/13 07:22:15;;;;;;;945.45;856.60;;;26.70;99.90;;;;;;4896966;29;20052;-81
2022/07/13 07:24:41;;;;;;;1047.18;944.35;;;27.10;99.90;;;;;;4894962;29;20051;-80
2022/07/13 07:27:09;;;;;;;966.95;878.63;;;27.50;99.90;;;;;;4896056;29;20055;-80
2022/07/13 07:29:35;;;;;;;967.15;877.70;;;28.20;99.90;;;;;;4894793;29;20418;-81
2022/07/13 07:32:04;;;;;;;1037.10;938.92;;;29.10;99.90;;;;;;4896875;29;20084;-80
2022/07/13 07:34:30;;;;;;;1074.22;959.78;;;29.80;99.90;;;;;;4894879;29;20051;-82
2022/07/13 07:36:56;;;;;;;1277.47;999.90;;;30.60;99.90;;;;;;4894286;29;20052;-81
2022/07/13 07:39:22;;;;;;;703.88;493.23;;;30.70;99.90;;;;;;4893722;29;20124;-81
2022/07/13 07:41:48;;;;;;;725.50;604.43;;;30.40;99.90;;;;;;4895149;29;20566;-80
2022/07/13 07:44:14;;;;;;;523.55;438.55;;;30.00;99.90;;;;;;4895680;29;20479;-80
2022/07/13 07:46:41;;;;;;;1290.05;683.33;;;29.70;99.90;;;;;;4896671;29;20064;-81
2022/07/13 07:49:06;;;;;;;1999.90;999.90;;;29.60;99.90;;;;;;4877617;29;20061;-82
2022/07/13 07:51:32;;;;;;;1999.90;999.90;;;29.80;99.90;;;;;;4894520;29;20059;-81
2022/07/13 07:53:58;;;;;;;1999.90;999.90;;;30.70;99.90;;;;;;4896866;29;20112;-80
2022/07/13 07:56:24;;;;;;;1999.90;999.90;;;31.70;99.90;;;;;;4897256;29;20052;-81
2022/07/13 07:58:50;;;;;;;1999.90;999.90;;;32.60;99.90;;;;;;4896270;29;20052;-80
2022/07/13 08:01:16;;;;;;;1999.90;999.90;;;32.90;99.90;;;;;;4894327;29;20095;-80
2022/07/13 08:03:42;;;;;;;1799.65;999.90;;;33.50;99.90;;;;;;4894377;29;20133;-80
2022/07/13 08:06:08;;;;;;;1811.88;999.90;;;34.20;99.90;;;;;;4896413;29;20037;-80
2022/07/13 08:08:34;;;;;;;1999.90;999.90;;;34.80;99.90;;;;;;4896225;29;20056;-86
2022/07/13 08:11:01;;;;;;;1999.90;999.90;;;35.50;99.90;;;;;;4895726;29;20044;-81
2022/07/13 08:13:27;;;;;;;1724.50;999.90;;;36.00;99.90;;;;;;4896523;29;20589;-81
2022/07/13 08:15:53;;;;;;;1620.45;999.90;;;36.10;99.90;;;;;;4894643;29;20127;-81
2022/07/13 08:18:19;;;;;;;1449.40;999.90;;;36.80;99.90;;;;;;4895048;29;20048;-82
2022/07/13 08:20:44;;;;;;;1535.97;999.90;;;37.20;99.90;;;;;;4884432;29;20053;-82
2022/07/13 08:25:55;;;;;;;1506.20;999.90;;;38.00;99.90;;;;;;4895282;29;20048;-80
2022/07/13 08:28:21;;;;;;;1260.27;999.90;;;37.90;99.90;;;;;;4896439;29;20419;-81
2022/07/13 08:30:47;;;;;;;1036.78;927.15;;;38.30;99.90;;;;;;4893822;29;20108;-80
2022/07/13 08:33:12;;;;;;;1158.75;971.08;;;38.40;99.90;;;;;;4888185;29;20059;-81
2022/07/13 08:38:38;;;;;;;1374.40;999.90;;;38.30;99.90;;;;;;4895797;29;20459;-81
2022/07/13 08:41:04;;;;;;;1418.68;999.90;;;39.00;99.90;;;;;;4896057;29;20059;-80
2022/07/13 08:43:33;;;;;;;922.63;831.00;;;39.10;99.90;;;;;;4893042;29;20052;-79
2022/07/13 08:46:02;;;;;;;1507.78;999.90;;;38.70;99.90;;;;;;4892228;29;20081;-82
2022/07/13 08:48:31;;;;;;;911.20;813.10;;;39.10;99.90;;;;;;4893689;29;20056;-79
2022/07/13 08:50:57;;;;;;;787.33;707.30;;;39.20;99.90;;;;;;4893901;29;20395;-80
2022/07/13 08:53:24;;;;;;;977.88;839.63;;;39.20;99.90;;;;;;4894113;29;20049;-80
2022/07/13 08:55:50;;;;;;;890.75;792.97;;;39.50;99.90;;;;;;4894989;29;20049;-80
2022/07/13 08:58:19;;;;;;;1031.70;904.60;;;39.90;99.90;;;;;;4894254;29;20506;-80
2022/07/13 09:00:45;;;;;;;744.63;688.90;;;39.70;99.90;;;;;;4893625;29;20152;-80
2022/07/13 09:03:11;;;;;;;790.87;729.57;;;40.00;99.90;;;;;;4891546;29;20044;-80
2022/07/13 09:05:37;;;;;;;724.42;668.97;;;40.40;99.90;;;;;;4894019;29;20360;-79
2022/07/13 09:08:07;;;;;;;647.10;591.65;;;40.60;99.90;;;;;;4894646;29;20067;-79
2022/07/13 09:10:52;;;;;;;734.95;673.85;;;40.80;99.90;;;;;;4880537;29;20439;-79
2022/07/13 09:13:41;;;;;;;582.83;533.28;;;40.60;99.90;;;;;;4875139;29;20060;-78
2022/07/13 09:16:27;;;;;;;763.35;698.17;;;40.80;99.90;;;;;;4898177;29;20131;-78
2022/07/13 09:19:00;;;;;;;832.40;764.10;;;41.00;99.90;;;;;;4894999;29;20048;-79
2022/07/13 09:21:27;;;;;;;780.17;714.50;;;41.30;99.90;;;;;;4898097;29;20064;-80
2022/07/13 09:23:58;;;;;;;889.90;813.00;;;41.50;99.90;;;;;;4889858;29;20060;-80
2022/07/13 09:26:45;;;;;;;894.92;818.78;;;41.50;99.90;;;;;;4880354;29;20049;-80
2022/07/13 09:29:11;;;;;;;906.93;820.73;;;41.90;99.90;;;;;;4895364;29;20546;-79
2022/07/13 09:31:53;;;;;;;806.40;739.50;;;42.40;99.90;;;;;;4898115;29;20079;-80
2022/07/13 09:34:20;;;;;;;866.83;793.25;;;42.70;99.90;;;;;;4897089;29;20392;-79
2022/07/13 09:36:45;;;;;;;809.85;738.60;;;43.20;99.90;;;;;;4898046;29;20059;-79
2022/07/13 09:39:11;;;;;;;858.63;778.77;;;43.00;99.90;;;;;;4895489;29;20123;-79
2022/07/13 09:41:37;;;;;;;658.17;600.70;;;43.00;99.90;;;;;;4898472;29;20143;-79
2022/07/13 09:47:00;;;;;;;574.83;528.42;;;43.20;99.90;;;;;;4895790;29;20335;-80
2022/07/13 09:49:46;;;;;;;572.10;523.55;;;43.30;99.90;;;;;;4883595;29;20052;-80
2022/07/13 09:52:13;;;;;;;869.30;783.42;;;43.40;99.90;;;;;;4897596;29;20058;-80
2022/07/13 09:54:45;;;;;;;567.63;520.92;;;43.50;99.90;;;;;;4896330;29;20044;-80
2022/07/13 09:57:13;;;;;;;592.60;543.08;;;43.60;99.90;;;;;;4898056;29;20083;-80
2022/07/13 09:59:41;;;;;;;474.52;431.67;;;43.40;99.90;;;;;;4894865;29;20044;-80
2022/07/13 10:02:07;;;;;;;912.67;820.72;;;43.70;99.90;;;;;;4898276;29;20401;-80
2022/07/13 10:04:35;;;;;;;1292.53;997.40;;;44.00;99.90;;;;;;4895625;29;20053;-82
2022/07/13 10:07:05;;;;;;;984.72;857.90;;;43.70;99.90;;;;;;4894203;29;20045;-80
2022/07/13 10:09:31;;;;;;;590.85;536.63;;;43.50;99.90;;;;;;4896439;29;20093;-80
2022/07/13 10:11:58;;;;;;;967.58;873.30;;;43.40;99.90;;;;;;4898051;29;20048;-80
2022/07/13 10:14:26;;;;;;;919.97;828.20;;;43.40;99.90;;;;;;4896675;29;20056;-80
2022/07/13 10:16:58;;;;;;;823.97;742.97;;;43.20;99.90;;;;;;4896452;29;20059;-80
2022/07/13 10:19:24;;;;;;;679.17;612.55;;;43.60;99.90;;;;;;4896817;29;20056;-80
2022/07/13 10:21:59;;;;;;;591.37;539.93;;;43.70;99.90;;;;;;4895261;29;20115;-79
2022/07/13 10:24:25;;;;;;;691.17;624.42;;;43.70;99.90;;;;;;4896149;29;20040;-80
2022/07/13 10:26:51;;;;;;;816.27;740.83;;;43.70;99.90;;;;;;4895635;29;20546;-80
2022/07/13 10:29:17;;;;;;;695.77;635.93;;;43.40;99.90;;;;;;4896371;29;20136;-80
2022/07/13 10:31:43;;;;;;;604.42;548.50;;;43.80;99.90;;;;;;4894747;29;20067;-80
2022/07/13 10:34:13;;;;;;;941.95;854.00;;;44.20;99.90;;;;;;4893282;29;20057;-80
2022/07/13 10:36:52;;;;;;;792.72;724.40;;;44.40;99.90;;;;;;4892803;29;20348;-80
2022/07/13 10:39:23;;;;;;;848.15;774.00;;;44.40;98.90;;;;;;4886238;29;20044;-81
2022/07/13 10:41:59;;;;;;;749.60;676.33;;;44.40;99.90;;;;;;4887728;29;20128;-85
2022/07/13 10:44:41;;;;;;;701.17;637.67;;;44.60;97.40;;;;;;4893849;29;20485;-80
2022/07/13 10:47:12;;;;;;;691.28;628.28;;;44.40;97.10;;;;;;4896155;29;20072;-80
2022/07/13 10:49:51;;;;;;;874.90;795.58;;;44.20;95.10;;;;;;4892835;29;20486;-81
2022/07/13 10:52:25;;;;;;;675.92;617.60;;;44.20;95.90;;;;;;4897888;29;20062;-80
2022/07/13 10:55:07;;;;;;;795.00;726.72;;;44.30;95.50;;;;;;4896153;29;20053;-86
2022/07/13 10:57:37;;;;;;;784.40;717.45;;;44.60;94.70;;;;;;4897890;29;20048;-83
2022/07/13 11:00:19;;;;;;;723.72;661.70;;;44.70;94.10;;;;;;4895402;29;20048;-80
2022/07/13 11:02:50;;;;;;;886.92;809.83;;;44.60;92.70;;;;;;4895110;29;20379;-80
2022/07/13 11:05:19;;;;;;;962.60;880.25;;;44.60;92.50;;;;;;4894769;29;20053;-81
2022/07/13 11:07:49;;;;;;;935.90;855.15;;;44.30;92.00;;;;;;4878836;29;20055;-80
2022/07/13 11:10:26;;;;;;;978.55;891.80;;;44.80;91.00;;;;;;4880513;29;20048;-81
2022/07/13 11:13:09;;;;;;;948.28;867.25;;;44.30;89.00;;;;;;4887403;29;20071;-85
2022/07/13 11:15:44;;;;;;;960.63;856.95;;;44.60;90.90;;;;;;4890721;29;20127;-80
2022/07/13 11:18:22;;;;;;;886.58;812.40;;;44.10;92.20;;;;;;4892376;29;20162;-81
2022/07/13 11:21:09;;;;;;;850.63;785.45;;;44.00;92.80;;;;;;4892960;29;20045;-83
2022/07/13 11:26:52;;;;;;;842.20;755.72;;;42.30;88.90;;;;;;4880363;29;20069;-81
2022/07/13 11:29:46;;;;;;;945.40;867.13;;;43.20;94.00;;;;;;4894992;29;20052;-82
2022/07/13 11:32:12;;;;;;;836.20;768.80;;;43.20;88.70;;;;;;4894144;29;20438;-80
2022/07/13 11:34:38;;;;;;;867.33;787.95;;;41.80;90.80;;;;;;4890522;29;20056;-80
2022/07/13 11:37:04;;;;;;;1055.30;888.08;;;40.70;90.30;;;;;;4889706;29;20040;-81
2022/07/13 11:39:32;;;;;;;915.97;777.72;;;39.90;92.70;;;;;;4890274;29;20111;-81
2022/07/13 11:41:59;;;;;;;827.10;745.28;;;39.40;95.00;;;;;;4893309;29;20127;-80
2022/07/13 11:44:26;;;;;;;1029.70;889.30;;;38.90;97.40;;;;;;4887144;29;20108;-81
2022/07/13 11:46:54;;;;;;;856.20;767.17;;;39.00;98.00;;;;;;4888956;29;20044;-82
2022/07/13 11:49:21;;;;;;;999.88;867.85;;;39.60;98.40;;;;;;4885735;29;20080;-81
2022/07/13 11:51:47;;;;;;;1132.15;942.35;;;40.10;94.20;;;;;;4891288;29;20045;-80
2022/07/13 11:54:15;;;;;;;812.78;729.45;;;40.40;95.10;;;;;;4886645;29;20056;-80
2022/07/13 11:56:56;;;;;;;943.45;844.17;;;40.20;95.60;;;;;;4893434;29;20045;-80
2022/07/13 11:59:44;;;;;;;935.15;837.67;;;39.70;94.40;;;;;;4893711;29;20470;-81
2022/07/13 12:02:11;;;;;;;1021.17;905.45;;;38.90;94.50;;;;;;4887248;29;20056;-82
2022/07/13 12:04:42;;;;;;;821.00;738.85;;;38.70;95.10;;;;;;4885877;29;20782;-80
2022/07/13 12:07:19;;;;;;;939.47;839.22;;;39.30;94.50;;;;;;4887990;29;20120;-82
2022/07/13 12:09:57;;;;;;;971.85;863.50;;;39.80;93.70;;;;;;4890279;29;20052;-80
2022/07/13 12:12:29;;;;;;;837.78;751.55;;;40.00;94.40;;;;;;4893317;29;20194;-81
2022/07/13 12:14:55;;;;;;;1016.58;906.20;;;40.00;92.00;;;;;;4888434;29;20056;-81